CSN661 PADQ-C5NK
Flight info
| Callsign | CSN661 |
|---|---|
| Flight time | N/A |
| Altitude | 12000 |
| Route | ODK T368 OSBOE DCT ICADI T368 AKN |
| Aircraft | C208/L-SDFGR/C |
Departure
| Time | 2026-05-03 23:27 |
|---|---|
| Airport | Kodiak Airport (PADQ) |
Arrival
| Time | N/A |
|---|---|
| Airport | C5NK |
| Time | Latitude | Longitude | Altitude | Speed | Heading |
|---|---|---|---|---|---|
| 2026-05-03 23:16 | 57.75343 | -152.51543 | 76 ft | 0 kts | 4° |
| 2026-05-03 23:21 | 57.75344 | -152.51543 | 76 ft | 2 kts | 11° |
| 2026-05-03 23:21 | 57.75330 | -152.51480 | 70 ft | 11 kts | 167° |
| 2026-05-03 23:22 | 57.75304 | -152.51309 | 72 ft | 7 kts | 110° |
| 2026-05-03 23:22 | 57.75277 | -152.51250 | 71 ft | 6 kts | 139° |
| 2026-05-03 23:22 | 57.75226 | -152.51170 | 68 ft | 15 kts | 142° |
| 2026-05-03 23:23 | 57.75120 | -152.51057 | 69 ft | 18 kts | 135° |
| 2026-05-03 23:23 | 57.75100 | -152.50905 | 66 ft | 20 kts | 92° |
| 2026-05-03 23:23 | 57.75096 | -152.50633 | 62 ft | 20 kts | 93° |
| 2026-05-03 23:23 | 57.75087 | -152.50399 | 58 ft | 16 kts | 92° |
| 2026-05-03 23:24 | 57.75083 | -152.50200 | 54 ft | 14 kts | 97° |
| 2026-05-03 23:24 | 57.75079 | -152.50026 | 51 ft | 13 kts | 89° |
| 2026-05-03 23:24 | 57.75079 | -152.49870 | 49 ft | 12 kts | 90° |
| 2026-05-03 23:24 | 57.75077 | -152.49715 | 47 ft | 12 kts | 92° |
| 2026-05-03 23:25 | 57.75115 | -152.49607 | 45 ft | 10 kts | 20° |
| 2026-05-03 23:25 | 57.75162 | -152.49623 | 44 ft | 5 kts | 294° |
| 2026-05-03 23:25 | 57.75165 | -152.49702 | 45 ft | 6 kts | 276° |
| 2026-05-03 23:25 | 57.75166 | -152.49724 | 46 ft | 0 kts | 274° |
| 2026-05-03 23:26 | 57.75175 | -152.49995 | 50 ft | 46 kts | 272° |
| 2026-05-03 23:27 | 57.75200 | -152.50839 | 154 ft | 70 kts | 292° |
| 2026-05-03 23:27 | 57.75563 | -152.51202 | 392 ft | 70 kts | 20° |
| 2026-05-03 23:27 | 57.76008 | -152.50520 | 509 ft | 95 kts | 51° |
| 2026-05-03 23:27 | 57.76347 | -152.49410 | 756 ft | 102 kts | 62° |
| 2026-05-03 23:28 | 57.76652 | -152.48216 | 1090 ft | 100 kts | 65° |
| 2026-05-03 23:28 | 57.76917 | -152.47021 | 1442 ft | 97 kts | 70° |
| 2026-05-03 23:28 | 57.77125 | -152.45856 | 1786 ft | 90 kts | 75° |
| 2026-05-03 23:28 | 57.77274 | -152.44779 | 2099 ft | 80 kts | 80° |
| 2026-05-03 23:29 | 57.77316 | -152.43810 | 2385 ft | 72 kts | 87° |
| 2026-05-03 23:29 | 57.77371 | -152.42812 | 2551 ft | 78 kts | 89° |
| 2026-05-03 23:29 | 57.77396 | -152.41836 | 2800 ft | 71 kts | 87° |
| 2026-05-03 23:29 | 57.77417 | -152.40909 | 2922 ft | 79 kts | 89° |
| 2026-05-03 23:30 | 57.77449 | -152.39763 | 3022 ft | 98 kts | 75° |
| 2026-05-03 23:30 | 57.77996 | -152.38909 | 3154 ft | 116 kts | 12° |
| 2026-05-03 23:30 | 57.78789 | -152.39387 | 3289 ft | 133 kts | 309° |
| 2026-05-03 23:30 | 57.79193 | -152.41028 | 3418 ft | 147 kts | 287° |
| 2026-05-03 23:31 | 57.79603 | -152.42883 | 3528 ft | 159 kts | 290° |
| 2026-05-03 23:31 | 57.80064 | -152.44819 | 3606 ft | 164 kts | 291° |
| 2026-05-03 23:31 | 57.80522 | -152.46761 | 3830 ft | 165 kts | 290° |
| 2026-05-03 23:31 | 57.80993 | -152.48754 | 4047 ft | 168 kts | 290° |
| 2026-05-03 23:32 | 57.81472 | -152.50768 | 4246 ft | 165 kts | 289° |
| 2026-05-03 23:32 | 57.81933 | -152.52733 | 4455 ft | 163 kts | 289° |
| 2026-05-03 23:32 | 57.82388 | -152.54661 | 4669 ft | 161 kts | 288° |
| 2026-05-03 23:32 | 57.82843 | -152.56579 | 4867 ft | 160 kts | 288° |
| 2026-05-03 23:33 | 57.83288 | -152.58467 | 5073 ft | 158 kts | 286° |
| 2026-05-03 23:33 | 57.83726 | -152.60321 | 5255 ft | 156 kts | 286° |
| 2026-05-03 23:33 | 57.84163 | -152.62179 | 5465 ft | 156 kts | 285° |
| 2026-05-03 23:33 | 57.84601 | -152.64049 | 5671 ft | 156 kts | 285° |
| 2026-05-03 23:34 | 57.85041 | -152.65915 | 5877 ft | 156 kts | 284° |
| 2026-05-03 23:34 | 57.85477 | -152.67767 | 6089 ft | 155 kts | 284° |
| 2026-05-03 23:34 | 57.85911 | -152.69611 | 6289 ft | 154 kts | 284° |
| 2026-05-03 23:34 | 57.86342 | -152.71449 | 6495 ft | 154 kts | 283° |
| 2026-05-03 23:35 | 57.86775 | -152.73293 | 6694 ft | 155 kts | 283° |
| 2026-05-03 23:35 | 57.87213 | -152.75165 | 6895 ft | 158 kts | 283° |
| 2026-05-03 23:35 | 57.87658 | -152.77067 | 7095 ft | 159 kts | 283° |
| 2026-05-03 23:35 | 57.88105 | -152.78977 | 7295 ft | 160 kts | 283° |
| 2026-05-03 23:36 | 57.88552 | -152.80886 | 7492 ft | 159 kts | 283° |
| 2026-05-03 23:36 | 57.88996 | -152.82790 | 7696 ft | 159 kts | 283° |
| 2026-05-03 23:36 | 57.89441 | -152.84700 | 7897 ft | 159 kts | 284° |
| 2026-05-03 23:36 | 57.89890 | -152.86620 | 8105 ft | 161 kts | 283° |
| 2026-05-03 23:37 | 57.90343 | -152.88567 | 8314 ft | 164 kts | 283° |
| 2026-05-03 23:37 | 57.90797 | -152.90511 | 8516 ft | 164 kts | 282° |
| 2026-05-03 23:37 | 57.91253 | -152.92473 | 8730 ft | 164 kts | 282° |
| 2026-05-03 23:37 | 57.91713 | -152.94456 | 8935 ft | 166 kts | 282° |
| 2026-05-03 23:38 | 57.92173 | -152.96437 | 9150 ft | 164 kts | 282° |
| 2026-05-03 23:38 | 57.92630 | -152.98404 | 9367 ft | 164 kts | 281° |
| 2026-05-03 23:38 | 57.93082 | -153.00347 | 9561 ft | 161 kts | 281° |
| 2026-05-03 23:38 | 57.93525 | -153.02271 | 9773 ft | 160 kts | 281° |
| 2026-05-03 23:39 | 57.93966 | -153.04187 | 9978 ft | 158 kts | 281° |
| 2026-05-03 23:39 | 57.94395 | -153.06052 | 10157 ft | 156 kts | 280° |
| 2026-05-03 23:39 | 57.94825 | -153.07918 | 10347 ft | 155 kts | 280° |
| 2026-05-03 23:39 | 57.95252 | -153.09764 | 10536 ft | 152 kts | 279° |
| 2026-05-03 23:40 | 57.95672 | -153.11588 | 10733 ft | 150 kts | 279° |
| 2026-05-03 23:40 | 57.96084 | -153.13381 | 10917 ft | 149 kts | 279° |
| 2026-05-03 23:40 | 57.96493 | -153.15161 | 11109 ft | 147 kts | 279° |
| 2026-05-03 23:40 | 57.96899 | -153.16931 | 11305 ft | 147 kts | 278° |
| 2026-05-03 23:41 | 57.97303 | -153.18695 | 11503 ft | 146 kts | 278° |
| 2026-05-03 23:41 | 57.97707 | -153.20454 | 11703 ft | 146 kts | 278° |
| 2026-05-03 23:41 | 57.98111 | -153.22221 | 11908 ft | 147 kts | 278° |
| 2026-05-03 23:41 | 57.98522 | -153.24042 | 12002 ft | 158 kts | 278° |
| 2026-05-03 23:42 | 57.98967 | -153.26009 | 12004 ft | 172 kts | 280° |
| 2026-05-03 23:42 | 57.99457 | -153.28127 | 12008 ft | 180 kts | 281° |
| 2026-05-03 23:42 | 57.99963 | -153.30321 | 12004 ft | 185 kts | 281° |
| 2026-05-03 23:42 | 58.00478 | -153.32555 | 12007 ft | 186 kts | 281° |
| 2026-05-03 23:43 | 58.00990 | -153.34796 | 12011 ft | 186 kts | 281° |
| 2026-05-03 23:43 | 58.01502 | -153.37047 | 12007 ft | 187 kts | 281° |
| 2026-05-03 23:43 | 58.02013 | -153.39298 | 12007 ft | 186 kts | 281° |
| 2026-05-03 23:43 | 58.02524 | -153.41551 | 12008 ft | 186 kts | 281° |
| 2026-05-03 23:44 | 58.03028 | -153.43771 | 12009 ft | 186 kts | 281° |
| 2026-05-03 23:44 | 58.03542 | -153.46035 | 11999 ft | 185 kts | 281° |
| 2026-05-03 23:44 | 58.04039 | -153.48235 | 12008 ft | 184 kts | 281° |
| 2026-05-03 23:44 | 58.04542 | -153.50461 | 12008 ft | 184 kts | 281° |
| 2026-05-03 23:45 | 58.05042 | -153.52674 | 12005 ft | 183 kts | 281° |
| 2026-05-03 23:45 | 58.05540 | -153.54881 | 12009 ft | 183 kts | 281° |
| 2026-05-03 23:45 | 58.06039 | -153.57090 | 12008 ft | 183 kts | 281° |
| 2026-05-03 23:45 | 58.06539 | -153.59316 | 12008 ft | 183 kts | 281° |
| 2026-05-03 23:46 | 58.07042 | -153.61543 | 12015 ft | 184 kts | 281° |
| 2026-05-03 23:46 | 58.07541 | -153.63776 | 12010 ft | 185 kts | 281° |
| 2026-05-03 23:46 | 58.08042 | -153.66008 | 12012 ft | 184 kts | 281° |
| 2026-05-03 23:46 | 58.08544 | -153.68243 | 12011 ft | 184 kts | 281° |
| 2026-05-03 23:47 | 58.09037 | -153.70439 | 12009 ft | 183 kts | 281° |
| 2026-05-03 23:47 | 58.09532 | -153.72658 | 12010 ft | 183 kts | 281° |
| 2026-05-03 23:47 | 58.10029 | -153.74882 | 12010 ft | 183 kts | 281° |
| 2026-05-03 23:47 | 58.10523 | -153.77095 | 12011 ft | 183 kts | 282° |
| 2026-05-03 23:48 | 58.11019 | -153.79318 | 12014 ft | 184 kts | 282° |
| 2026-05-03 23:48 | 58.11515 | -153.81547 | 12014 ft | 185 kts | 282° |
| 2026-05-03 23:48 | 58.12018 | -153.83803 | 12015 ft | 186 kts | 282° |
| 2026-05-03 23:48 | 58.12524 | -153.86073 | 12013 ft | 188 kts | 282° |
| 2026-05-03 23:49 | 58.13033 | -153.88359 | 12020 ft | 188 kts | 282° |
| 2026-05-03 23:49 | 58.13540 | -153.90644 | 12020 ft | 189 kts | 282° |
| 2026-05-03 23:49 | 58.14041 | -153.92907 | 12018 ft | 189 kts | 282° |
| 2026-05-03 23:49 | 58.14550 | -153.95211 | 12015 ft | 189 kts | 282° |
| 2026-05-03 23:50 | 58.15059 | -153.97512 | 12023 ft | 189 kts | 282° |
| 2026-05-03 23:50 | 58.15400 | -153.99042 | 12022 ft | 190 kts | 282° |
| 2026-05-03 23:50 | 58.16081 | -154.02134 | 12022 ft | 190 kts | 282° |
| 2026-05-03 23:50 | 58.16591 | -154.04452 | 12024 ft | 192 kts | 282° |
| 2026-05-03 23:51 | 58.17105 | -154.06779 | 12024 ft | 195 kts | 282° |
| 2026-05-03 23:51 | 58.17630 | -154.09164 | 12023 ft | 197 kts | 283° |
| 2026-05-03 23:51 | 58.18160 | -154.11575 | 12025 ft | 198 kts | 282° |
| 2026-05-03 23:51 | 58.18686 | -154.13967 | 12022 ft | 199 kts | 283° |
| 2026-05-03 23:52 | 58.19225 | -154.16427 | 12027 ft | 199 kts | 283° |
| 2026-05-03 23:52 | 58.19749 | -154.18833 | 12031 ft | 201 kts | 283° |
| 2026-05-03 23:52 | 58.20290 | -154.21290 | 12025 ft | 201 kts | 283° |
| 2026-05-03 23:52 | 58.20826 | -154.23743 | 12026 ft | 201 kts | 282° |
| 2026-05-03 23:53 | 58.21365 | -154.26220 | 12027 ft | 204 kts | 283° |
| 2026-05-03 23:53 | 58.21904 | -154.28707 | 12024 ft | 204 kts | 283° |
| 2026-05-03 23:53 | 58.22439 | -154.31145 | 12024 ft | 202 kts | 282° |
| 2026-05-03 23:53 | 58.22972 | -154.33601 | 12015 ft | 199 kts | 282° |
| 2026-05-03 23:54 | 58.23494 | -154.36018 | 12010 ft | 197 kts | 282° |
| 2026-05-03 23:54 | 58.24013 | -154.38410 | 12010 ft | 194 kts | 282° |
| 2026-05-03 23:54 | 58.24520 | -154.40753 | 12014 ft | 193 kts | 282° |
| 2026-05-03 23:54 | 58.25029 | -154.43111 | 12011 ft | 193 kts | 282° |
| 2026-05-03 23:55 | 58.25540 | -154.45472 | 12015 ft | 192 kts | 282° |
| 2026-05-03 23:55 | 58.26044 | -154.47811 | 12015 ft | 191 kts | 281° |
| 2026-05-03 23:55 | 58.26546 | -154.50150 | 12022 ft | 192 kts | 282° |
| 2026-05-03 23:55 | 58.27056 | -154.52496 | 12013 ft | 189 kts | 282° |
| 2026-05-03 23:56 | 58.27548 | -154.54785 | 12019 ft | 185 kts | 281° |
| 2026-05-03 23:56 | 58.28031 | -154.57056 | 12021 ft | 185 kts | 281° |
| 2026-05-03 23:56 | 58.28515 | -154.59320 | 12020 ft | 188 kts | 282° |
| 2026-05-03 23:56 | 58.29014 | -154.61634 | 12023 ft | 190 kts | 282° |
| 2026-05-03 23:57 | 58.29517 | -154.63974 | 12025 ft | 192 kts | 282° |
| 2026-05-03 23:57 | 58.30022 | -154.66340 | 12024 ft | 194 kts | 282° |
| 2026-05-03 23:57 | 58.30533 | -154.68728 | 12021 ft | 195 kts | 282° |
| 2026-05-03 23:57 | 58.31045 | -154.71118 | 12027 ft | 195 kts | 282° |
| 2026-05-03 23:58 | 58.31559 | -154.73530 | 12022 ft | 198 kts | 283° |
| 2026-05-03 23:58 | 58.32076 | -154.75962 | 12013 ft | 198 kts | 283° |
| 2026-05-03 23:58 | 58.32593 | -154.78390 | 12025 ft | 198 kts | 283° |
| 2026-05-03 23:58 | 58.33109 | -154.80802 | 12016 ft | 199 kts | 283° |
| 2026-05-03 23:59 | 58.33627 | -154.83235 | 12013 ft | 196 kts | 283° |
| 2026-05-03 23:59 | 58.34137 | -154.85645 | 12016 ft | 195 kts | 283° |
| 2026-05-03 23:59 | 58.34644 | -154.88053 | 12015 ft | 197 kts | 283° |
| 2026-05-03 23:59 | 58.35155 | -154.90477 | 12006 ft | 197 kts | 283° |
| 2026-05-04 00:00 | 58.35660 | -154.92857 | 12019 ft | 197 kts | 283° |
| 2026-05-04 00:00 | 58.36171 | -154.95303 | 12011 ft | 199 kts | 283° |
| 2026-05-04 00:00 | 58.36688 | -154.97745 | 12013 ft | 198 kts | 283° |
| 2026-05-04 00:00 | 58.37201 | -155.00179 | 12009 ft | 198 kts | 284° |
| 2026-05-04 00:01 | 58.37713 | -155.02606 | 12003 ft | 194 kts | 284° |
| 2026-05-04 00:01 | 58.38203 | -155.04950 | 12013 ft | 193 kts | 282° |
| 2026-05-04 00:01 | 58.38696 | -155.07325 | 12010 ft | 192 kts | 283° |
| 2026-05-04 00:01 | 58.39192 | -155.09687 | 12004 ft | 191 kts | 283° |
| 2026-05-04 00:02 | 58.39687 | -155.12046 | 12008 ft | 191 kts | 283° |
| 2026-05-04 00:02 | 58.40172 | -155.14370 | 12008 ft | 191 kts | 283° |
| 2026-05-04 00:02 | 58.40665 | -155.16729 | 12007 ft | 192 kts | 282° |
| 2026-05-04 00:02 | 58.41155 | -155.19077 | 12007 ft | 189 kts | 283° |
| 2026-05-04 00:03 | 58.41639 | -155.21405 | 12008 ft | 187 kts | 283° |
| 2026-05-04 00:03 | 58.42118 | -155.23704 | 12000 ft | 186 kts | 283° |
| 2026-05-04 00:03 | 58.42591 | -155.25995 | 11999 ft | 185 kts | 283° |
| 2026-05-04 00:03 | 58.43066 | -155.28290 | 12007 ft | 187 kts | 283° |
| 2026-05-04 00:04 | 58.43545 | -155.30590 | 12003 ft | 185 kts | 283° |
| 2026-05-04 00:04 | 58.44018 | -155.32892 | 11768 ft | 187 kts | 284° |
| 2026-05-04 00:04 | 58.44487 | -155.35155 | 11485 ft | 185 kts | 284° |
| 2026-05-04 00:04 | 58.44952 | -155.37394 | 11359 ft | 177 kts | 284° |
| 2026-05-04 00:05 | 58.45395 | -155.39552 | 11250 ft | 173 kts | 284° |
| 2026-05-04 00:05 | 58.45833 | -155.41682 | 11143 ft | 171 kts | 285° |
| 2026-05-04 00:05 | 58.46267 | -155.43788 | 11041 ft | 170 kts | 285° |
| 2026-05-04 00:05 | 58.46695 | -155.45859 | 10936 ft | 168 kts | 285° |
| 2026-05-04 00:06 | 58.47119 | -155.47940 | 10836 ft | 167 kts | 285° |
| 2026-05-04 00:06 | 58.47539 | -155.49976 | 10719 ft | 162 kts | 285° |
| 2026-05-04 00:06 | 58.47944 | -155.51963 | 10607 ft | 159 kts | 287° |
| 2026-05-04 00:06 | 58.48346 | -155.53910 | 10504 ft | 159 kts | 287° |
| 2026-05-04 00:07 | 58.48753 | -155.55901 | 10408 ft | 162 kts | 287° |
| 2026-05-04 00:07 | 58.49025 | -155.57240 | 10342 ft | 163 kts | 287° |
| 2026-05-04 00:07 | 58.49581 | -155.59962 | 10216 ft | 165 kts | 288° |
| 2026-05-04 00:07 | 58.49860 | -155.61322 | 10154 ft | 166 kts | 288° |
| 2026-05-04 00:08 | 58.50281 | -155.63383 | 10058 ft | 167 kts | 288° |
| 2026-05-04 00:08 | 58.50702 | -155.65454 | 9966 ft | 167 kts | 288° |
| 2026-05-04 00:08 | 58.51125 | -155.67535 | 9859 ft | 168 kts | 289° |
| 2026-05-04 00:08 | 58.51549 | -155.69616 | 9748 ft | 168 kts | 289° |
| 2026-05-04 00:09 | 58.51972 | -155.71698 | 9640 ft | 168 kts | 289° |
| 2026-05-04 00:09 | 58.52395 | -155.73789 | 9537 ft | 168 kts | 289° |
| 2026-05-04 00:09 | 58.52815 | -155.75853 | 9429 ft | 168 kts | 289° |
| 2026-05-04 00:09 | 58.53236 | -155.77939 | 9312 ft | 168 kts | 289° |
| 2026-05-04 00:10 | 58.53657 | -155.80020 | 9208 ft | 167 kts | 289° |
| 2026-05-04 00:10 | 58.54077 | -155.82094 | 9102 ft | 167 kts | 289° |
| 2026-05-04 00:10 | 58.54495 | -155.84168 | 8998 ft | 167 kts | 289° |
| 2026-05-04 00:10 | 58.54919 | -155.86275 | 8896 ft | 171 kts | 289° |
| 2026-05-04 00:11 | 58.55348 | -155.88400 | 8792 ft | 171 kts | 290° |
| 2026-05-04 00:11 | 58.55776 | -155.90523 | 8684 ft | 170 kts | 290° |
| 2026-05-04 00:11 | 58.56198 | -155.92625 | 8575 ft | 168 kts | 290° |
| 2026-05-04 00:11 | 58.56616 | -155.94709 | 8458 ft | 167 kts | 290° |
| 2026-05-04 00:12 | 58.57026 | -155.96756 | 8357 ft | 166 kts | 290° |
| 2026-05-04 00:12 | 58.57441 | -155.98820 | 8250 ft | 166 kts | 290° |
| 2026-05-04 00:12 | 58.57854 | -156.00881 | 8142 ft | 166 kts | 290° |
| 2026-05-04 00:12 | 58.58264 | -156.02939 | 8036 ft | 165 kts | 290° |
| 2026-05-04 00:13 | 58.58671 | -156.04970 | 8007 ft | 161 kts | 291° |
| 2026-05-04 00:13 | 58.59069 | -156.06971 | 7931 ft | 162 kts | 290° |
| 2026-05-04 00:13 | 58.59477 | -156.09018 | 7772 ft | 166 kts | 291° |
| 2026-05-04 00:13 | 58.59891 | -156.11100 | 7619 ft | 167 kts | 291° |
| 2026-05-04 00:14 | 58.60308 | -156.13192 | 7463 ft | 168 kts | 291° |
| 2026-05-04 00:14 | 58.60724 | -156.15285 | 7316 ft | 168 kts | 291° |
| 2026-05-04 00:14 | 58.61140 | -156.17384 | 7168 ft | 168 kts | 291° |
| 2026-05-04 00:14 | 58.61551 | -156.19459 | 7013 ft | 168 kts | 292° |
| 2026-05-04 00:15 | 58.61963 | -156.21531 | 6749 ft | 161 kts | 292° |
| 2026-05-04 00:15 | 58.62356 | -156.23500 | 6494 ft | 155 kts | 292° |
| 2026-05-04 00:15 | 58.62733 | -156.25412 | 6220 ft | 152 kts | 292° |
| 2026-05-04 00:15 | 58.63106 | -156.27302 | 5939 ft | 150 kts | 292° |
| 2026-05-04 00:16 | 58.63467 | -156.29132 | 5743 ft | 146 kts | 292° |
| 2026-05-04 00:16 | 58.63821 | -156.30932 | 5572 ft | 142 kts | 292° |
| 2026-05-04 00:16 | 58.64170 | -156.32702 | 5406 ft | 141 kts | 292° |
| 2026-05-04 00:16 | 58.64514 | -156.34455 | 5248 ft | 140 kts | 292° |
| 2026-05-04 00:17 | 58.64860 | -156.36209 | 5087 ft | 140 kts | 292° |
| 2026-05-04 00:17 | 58.65203 | -156.37959 | 4926 ft | 140 kts | 292° |
| 2026-05-04 00:17 | 58.65544 | -156.39700 | 4772 ft | 139 kts | 292° |
| 2026-05-04 00:17 | 58.65881 | -156.41420 | 4612 ft | 139 kts | 292° |
| 2026-05-04 00:18 | 58.66221 | -156.43162 | 4453 ft | 140 kts | 293° |
| 2026-05-04 00:18 | 58.66567 | -156.44925 | 4294 ft | 141 kts | 293° |
| 2026-05-04 00:18 | 58.66911 | -156.46683 | 4134 ft | 140 kts | 293° |
| 2026-05-04 00:18 | 58.67254 | -156.48431 | 3971 ft | 139 kts | 293° |
| 2026-05-04 00:19 | 58.67589 | -156.50168 | 3812 ft | 138 kts | 293° |
| 2026-05-04 00:19 | 58.67924 | -156.51888 | 3656 ft | 137 kts | 293° |
| 2026-05-04 00:19 | 58.68259 | -156.53597 | 3497 ft | 136 kts | 293° |
| 2026-05-04 00:19 | 58.68590 | -156.55306 | 3339 ft | 137 kts | 293° |
| 2026-05-04 00:20 | 58.68925 | -156.57023 | 3179 ft | 137 kts | 293° |
| 2026-05-04 00:20 | 58.69254 | -156.58718 | 3025 ft | 137 kts | 293° |
| 2026-05-04 00:20 | 58.69589 | -156.60433 | 2872 ft | 137 kts | 293° |
| 2026-05-04 00:20 | 58.69922 | -156.62154 | 2707 ft | 137 kts | 293° |
| 2026-05-04 00:21 | 58.70255 | -156.63870 | 2551 ft | 136 kts | 293° |
| 2026-05-04 00:21 | 58.70585 | -156.65576 | 2393 ft | 135 kts | 293° |
| 2026-05-04 00:21 | 58.70915 | -156.67281 | 2236 ft | 136 kts | 293° |
| 2026-05-04 00:21 | 58.71246 | -156.69000 | 2074 ft | 137 kts | 293° |
| 2026-05-04 00:22 | 58.71572 | -156.70689 | 2002 ft | 131 kts | 293° |
| 2026-05-04 00:22 | 58.71871 | -156.72266 | 2009 ft | 119 kts | 293° |
| 2026-05-04 00:22 | 58.72154 | -156.73728 | 1936 ft | 119 kts | 293° |
| 2026-05-04 00:22 | 58.72440 | -156.75233 | 1833 ft | 121 kts | 290° |
| 2026-05-04 00:23 | 58.72520 | -156.76866 | 1731 ft | 123 kts | 275° |
| 2026-05-04 00:23 | 58.72758 | -156.78382 | 1606 ft | 118 kts | 300° |
| 2026-05-04 00:23 | 58.73032 | -156.79874 | 1493 ft | 119 kts | 289° |
| 2026-05-04 00:23 | 58.73195 | -156.81326 | 1348 ft | 106 kts | 276° |
| 2026-05-04 00:24 | 58.73232 | -156.82686 | 1211 ft | 100 kts | 277° |
| 2026-05-04 00:24 | 58.73265 | -156.83958 | 1044 ft | 88 kts | 277° |
| 2026-05-04 00:24 | 58.73284 | -156.85038 | 1027 ft | 76 kts | 276° |
| 2026-05-04 00:24 | 58.73300 | -156.86052 | 1002 ft | 73 kts | 277° |
| 2026-05-04 00:25 | 58.73317 | -156.87076 | 901 ft | 80 kts | 276° |
| 2026-05-04 00:25 | 58.73309 | -156.88145 | 729 ft | 81 kts | 278° |
| 2026-05-04 00:25 | 58.73322 | -156.89189 | 599 ft | 76 kts | 277° |
| 2026-05-04 00:25 | 58.73346 | -156.90192 | 554 ft | 74 kts | 282° |
| 2026-05-04 00:26 | 58.73406 | -156.91196 | 506 ft | 78 kts | 283° |
| 2026-05-04 00:26 | 58.73469 | -156.92273 | 419 ft | 83 kts | 277° |
| 2026-05-04 00:26 | 58.73438 | -156.93398 | 361 ft | 87 kts | 269° |
| 2026-05-04 00:26 | 58.73368 | -156.94573 | 344 ft | 89 kts | 266° |
| 2026-05-04 00:27 | 58.73322 | -156.95708 | 377 ft | 82 kts | 271° |
| 2026-05-04 00:27 | 58.73342 | -156.96782 | 382 ft | 80 kts | 279° |
| 2026-05-04 00:27 | 58.73397 | -156.97875 | 318 ft | 83 kts | 282° |
| 2026-05-04 00:27 | 58.73455 | -156.98943 | 282 ft | 78 kts | 280° |
| 2026-05-04 00:28 | 58.73496 | -156.99954 | 254 ft | 78 kts | 279° |
| 2026-05-04 00:28 | 58.73535 | -157.00993 | 239 ft | 77 kts | 278° |
| 2026-05-04 00:28 | 58.73573 | -157.02033 | 169 ft | 80 kts | 278° |
| 2026-05-04 00:28 | 58.73603 | -157.03049 | 75 ft | 69 kts | 280° |
| 2026-05-04 00:29 | 58.73605 | -157.03485 | 75 ft | 1 kts | 160° |
| 2026-05-04 00:29 | 58.73603 | -157.03379 | 74 ft | 13 kts | 92° |
| 2026-05-04 00:29 | 58.73602 | -157.03151 | 67 ft | 16 kts | 92° |
| 2026-05-04 00:29 | 58.73597 | -157.02896 | 72 ft | 22 kts | 95° |
| 2026-05-04 00:30 | 58.73588 | -157.02631 | 65 ft | 19 kts | 91° |
| 2026-05-04 00:30 | 58.73584 | -157.02421 | 72 ft | 15 kts | 92° |
| 2026-05-04 00:30 | 58.73559 | -157.02214 | 72 ft | 16 kts | 136° |
| 2026-05-04 00:30 | 58.73437 | -157.02126 | 67 ft | 23 kts | 163° |
| 2026-05-04 00:31 | 58.73324 | -157.02072 | 68 ft | 10 kts | 216° |
| 2026-05-04 00:31 | 58.73318 | -157.02089 | 75 ft | 0 kts | 245° |
| 2026-05-04 00:31 | 58.73314 | -157.02118 | 87 ft | 0 kts | 273° |
| 2026-05-04 00:31 | 58.73325 | -157.02162 | 103 ft | 8 kts | 257° |
| 2026-05-04 00:32 | 58.73324 | -157.02168 | 105 ft | 0 kts | 253° |